createdAt,value
2019-04-19T00:00:42.579Z,102478.11
2019-04-19T00:03:19.137Z,102476.46
2019-04-19T00:05:48.115Z,102470.66
2019-04-19T00:08:34.688Z,102483.89
2019-04-19T00:10:58.048Z,102467.54
2019-04-19T00:13:21.954Z,102479.02
2019-04-19T00:15:51.930Z,102481.59
2019-04-19T00:18:24.486Z,102473.76
2019-04-19T00:21:12.479Z,102479.47
2019-04-19T00:23:34.084Z,102479.53
2019-04-19T00:25:57.775Z,102483.69
2019-04-19T00:28:37.496Z,102479.50
2019-04-19T00:31:15.667Z,102475.16
2019-04-19T00:33:37.503Z,102472.68
2019-04-19T00:36:02.791Z,102472.68
2019-04-19T00:38:42.960Z,102487.15
2019-04-19T00:41:33.811Z,102482.50
2019-04-19T00:44:06.857Z,102490.28
2019-04-19T00:46:44.932Z,102484.17
2019-04-19T00:49:10.162Z,102488.98
2019-04-19T00:51:46.980Z,102496.27
2019-04-19T00:54:13.053Z,102495.96
2019-04-19T00:56:44.270Z,102490.42
2019-04-19T00:59:08.166Z,102486.47
2019-04-19T01:01:35.641Z,102485.77
2019-04-19T01:04:14.588Z,102494.92
2019-04-19T01:06:44.044Z,102497.28
2019-04-19T01:09:27.882Z,102492.47
2019-04-19T01:11:55.686Z,102501.98
2019-04-19T01:14:25.359Z,102498.69
2019-04-19T01:17:03.065Z,102499.73
2019-04-19T01:19:18.705Z,102502.13
2019-04-19T01:21:49.075Z,102502.28
2019-04-19T01:24:29.179Z,102496.19
2019-04-19T01:26:53.970Z,102495.48
2019-04-19T01:29:23.420Z,102496.12
2019-04-19T01:32:00.408Z,102505.73
2019-04-19T01:34:26.234Z,102507.23
2019-04-19T01:36:57.056Z,102501.72
2019-04-19T01:39:39.968Z,102500.92
2019-04-19T01:42:11.813Z,102503.77
2019-04-19T01:44:50.027Z,102496.17
2019-04-19T01:47:36.267Z,102501.27
2019-04-19T01:50:13.233Z,102509.91
2019-04-19T01:52:59.687Z,102510.46
2019-04-19T01:55:14.979Z,102501.66
2019-04-19T01:57:38.799Z,102505.00
2019-04-19T02:00:12.965Z,102513.64
2019-04-19T02:02:47.098Z,102504.70
2019-04-19T02:05:17.524Z,102513.64
2019-04-19T02:07:44.520Z,102511.13
2019-04-19T02:10:58.726Z,102512.54
2019-04-19T02:13:28.840Z,102517.23
2019-04-19T02:15:54.802Z,102516.06
2019-04-19T02:18:27.658Z,102515.01
2019-04-19T02:20:56.037Z,102516.54
2019-04-19T02:23:26.060Z,102514.84
2019-04-19T02:26:03.108Z,102519.53
2019-04-19T02:28:32.804Z,102522.72
2019-04-19T02:31:18.548Z,102521.06
2019-04-19T02:34:03.379Z,102521.84
2019-04-19T02:36:41.539Z,102521.27
2019-04-19T02:39:05.070Z,102521.27
2019-04-19T02:44:10.196Z,102524.45
2019-04-19T02:49:09.473Z,102527.61
2019-04-19T02:51:39.411Z,102527.79
2019-04-19T02:54:11.863Z,102527.48
2019-04-19T02:59:32.118Z,102525.70
2019-04-19T03:02:04.721Z,102532.98
2019-04-19T03:06:36.902Z,102534.16
2019-04-19T03:09:01.009Z,102536.59
2019-04-19T03:11:50.317Z,102528.19
2019-04-19T03:14:16.438Z,102532.77
2019-04-19T03:16:53.846Z,102531.73
2019-04-19T03:19:18.283Z,102535.20
2019-04-19T03:21:53.376Z,102538.29
2019-04-19T03:24:22.599Z,102538.29
2019-04-19T03:26:55.452Z,102538.42
2019-04-19T03:29:20.910Z,102538.97
2019-04-19T03:34:54.759Z,102547.97
2019-04-19T03:37:00.575Z,102543.13
2019-04-19T03:39:40.618Z,102547.34
2019-04-19T03:42:17.944Z,102550.16
2019-04-19T03:44:51.094Z,102550.78
2019-04-19T03:47:21.394Z,102539.61
2019-04-19T03:49:52.385Z,102551.27
2019-04-19T03:52:25.922Z,102551.81
2019-04-19T03:54:55.695Z,102553.77
2019-04-19T03:57:24.904Z,102556.20
2019-04-19T03:59:41.445Z,102554.61
2019-04-19T04:02:15.339Z,102556.09
2019-04-19T04:04:48.422Z,102552.66
2019-04-19T04:07:20.164Z,102563.03
2019-04-19T04:09:49.694Z,102556.43
2019-04-19T04:12:32.238Z,102562.78
2019-04-19T04:15:07.266Z,102560.76
2019-04-19T04:17:28.932Z,102564.27
2019-04-19T04:19:58.809Z,102565.72
2019-04-19T04:22:33.527Z,102570.36
2019-04-19T04:25:09.439Z,102574.64
2019-04-19T04:27:47.551Z,102565.89
2019-04-19T04:30:15.750Z,102570.39
2019-04-19T04:32:49.279Z,102573.65
2019-04-19T04:35:25.151Z,102579.16
2019-04-19T04:37:51.454Z,102572.56
2019-04-19T04:40:10.635Z,102571.70
2019-04-19T04:42:52.285Z,102577.09
2019-04-19T04:45:33.098Z,102570.98
2019-04-19T04:48:03.583Z,102572.94
2019-04-19T04:51:00.446Z,102580.66
2019-04-19T04:53:19.429Z,102581.14
2019-04-19T04:55:57.943Z,102578.20
2019-04-19T04:58:26.896Z,102581.48
2019-04-19T05:00:58.937Z,102590.69
2019-04-19T05:03:42.937Z,102591.10
2019-04-19T05:06:19.119Z,102595.82
2019-04-19T05:08:48.962Z,102593.05
2019-04-19T05:11:16.046Z,102597.01
2019-04-19T05:13:50.046Z,102603.40
2019-04-19T05:16:27.675Z,102594.70
2019-04-19T05:18:52.354Z,102602.08
2019-04-19T05:21:24.264Z,102600.61
2019-04-19T05:23:59.679Z,102604.11
2019-04-19T05:26:37.417Z,102604.35
2019-04-19T05:28:50.099Z,102597.59
2019-04-19T05:31:11.223Z,102608.80
2019-04-19T05:33:52.981Z,102607.02
2019-04-19T05:36:29.479Z,102602.66
2019-04-19T05:39:08.940Z,102603.11
2019-04-19T05:41:38.449Z,102603.11
2019-04-19T05:46:53.107Z,102604.69
2019-04-19T05:49:20.859Z,102611.29
2019-04-19T05:52:06.191Z,102612.09
2019-04-19T05:54:11.862Z,102613.39
2019-04-19T05:56:45.949Z,102610.23
2019-04-19T05:59:21.444Z,102611.52
2019-04-19T06:01:59.282Z,102611.19
2019-04-19T06:04:32.324Z,102614.05
2019-04-19T06:07:01.715Z,102618.58
2019-04-19T06:09:15.991Z,102609.52
2019-04-19T06:11:46.683Z,102605.70
2019-04-19T06:14:43.363Z,102612.76
2019-04-19T06:17:24.974Z,102615.83
2019-04-19T06:19:50.543Z,102615.64
2019-04-19T06:22:31.715Z,102616.37
2019-04-19T06:24:56.939Z,102614.83
2019-04-19T06:27:43.346Z,102614.06
2019-04-19T06:30:11.854Z,102619.82
2019-04-19T06:32:40.393Z,102613.45
2019-04-19T06:35:04.185Z,102616.60
2019-04-19T06:37:22.189Z,102622.05
2019-04-19T06:39:53.655Z,102616.63
2019-04-19T06:42:31.914Z,102620.72
2019-04-19T06:45:12.309Z,102623.02
2019-04-19T06:47:30.307Z,102623.58
2019-04-19T06:49:55.735Z,102627.88
2019-04-19T06:52:29.431Z,102621.84
2019-04-19T06:55:00.003Z,102628.53
2019-04-19T06:57:35.783Z,102626.19
2019-04-19T07:00:13.136Z,102623.55
2019-04-19T07:02:35.132Z,102625.77
2019-04-19T07:05:21.347Z,102628.30
2019-04-19T07:08:06.842Z,102629.52
2019-04-19T07:10:39.074Z,102633.52
2019-04-19T07:13:03.065Z,102628.16
2019-04-19T07:15:58.112Z,102636.58
2019-04-19T07:17:58.570Z,102635.58
2019-04-19T07:20:30.220Z,102640.91
2019-04-19T07:23:02.774Z,102635.17
2019-04-19T07:25:42.409Z,102638.28
2019-04-19T07:28:01.536Z,102634.59
2019-04-19T07:30:22.556Z,102641.96
2019-04-19T07:33:00.407Z,102640.73
2019-04-19T07:35:48.019Z,102645.05
2019-04-19T07:38:25.193Z,102636.08
2019-04-19T07:41:04.780Z,102641.36
2019-04-19T07:43:10.072Z,102645.44
2019-04-19T07:46:02.819Z,102647.14
2019-04-19T07:48:17.265Z,102647.95
2019-04-19T07:50:54.666Z,102646.58
2019-04-19T07:53:20.306Z,102648.19
2019-04-19T07:55:58.899Z,102642.53
2019-04-19T08:01:16.228Z,102655.09
2019-04-19T08:04:00.220Z,102647.17
2019-04-19T08:06:35.928Z,102646.50
2019-04-19T08:11:26.010Z,102657.81
2019-04-19T08:16:27.818Z,102652.66
2019-04-19T08:28:45.115Z,102656.70
2019-04-19T08:31:11.092Z,102647.80
2019-04-19T08:33:42.836Z,102658.39
2019-04-19T08:36:14.608Z,102654.55
2019-04-19T08:39:04.222Z,102657.90
2019-04-19T08:41:25.451Z,102654.41
2019-04-19T08:44:05.110Z,102656.16
2019-04-19T08:46:22.076Z,102657.25
2019-04-19T08:48:57.627Z,102661.11
2019-04-19T08:51:33.724Z,102650.89
2019-04-19T08:54:23.999Z,102651.73
2019-04-19T08:56:42.149Z,102653.11
2019-04-19T08:59:27.963Z,102651.28
2019-04-19T09:01:56.126Z,102651.23
2019-04-19T09:04:23.686Z,102647.21
2019-04-19T09:09:30.565Z,102647.79
2019-04-19T09:12:02.627Z,102645.31
2019-04-19T09:14:38.188Z,102645.34
2019-04-19T09:17:08.289Z,102642.77
2019-04-19T09:19:55.240Z,102645.69
2019-04-19T09:22:05.537Z,102650.42
2019-04-19T09:24:31.024Z,102652.34
2019-04-19T09:27:05.040Z,102652.64
2019-04-19T09:30:20.255Z,102645.98
2019-04-19T09:32:02.768Z,102653.35
2019-04-19T09:34:26.494Z,102649.98
2019-04-19T09:37:06.710Z,102645.37
2019-04-19T09:39:43.713Z,102647.88
2019-04-19T09:42:02.207Z,102646.75
2019-04-19T09:44:37.543Z,102650.45
2019-04-19T09:46:59.609Z,102655.31
2019-04-19T09:49:47.792Z,102644.17
2019-04-19T09:52:26.393Z,102644.60
2019-04-19T09:54:57.993Z,102641.00
2019-04-19T09:57:27.912Z,102635.77
2019-04-19T09:59:39.656Z,102635.32
2019-04-19T10:04:41.986Z,102630.67
2019-04-19T10:07:11.397Z,102630.95
2019-04-19T10:09:40.882Z,102628.54
2019-04-19T10:12:11.509Z,102630.75
2019-04-19T10:14:41.748Z,102629.64
2019-04-19T10:17:13.913Z,102626.04
2019-04-19T10:19:44.534Z,102618.61
2019-04-19T10:22:16.592Z,102614.19
2019-04-19T10:24:48.112Z,102617.01
2019-04-19T10:27:24.957Z,102623.33
2019-04-19T10:29:55.591Z,102611.61
2019-04-19T10:32:32.973Z,102616.27
2019-04-19T10:35:02.523Z,102613.92
2019-04-19T10:37:33.636Z,102611.30
2019-04-19T10:40:05.885Z,102611.35
2019-04-19T10:42:35.965Z,102621.73
2019-04-19T10:45:07.976Z,102615.66
2019-04-19T10:47:39.950Z,102605.84
2019-04-19T10:50:20.534Z,102601.07
2019-04-19T10:52:41.842Z,102595.73
2019-04-19T10:55:11.361Z,102594.04
2019-04-19T10:57:41.136Z,102593.40
2019-04-19T11:00:11.320Z,102594.47
2019-04-19T11:02:42.092Z,102595.31
2019-04-19T11:05:12.345Z,102596.45
2019-04-19T11:07:42.105Z,102586.50
2019-04-19T11:10:13.679Z,102589.02
2019-04-19T11:12:44.731Z,102583.08
2019-04-19T11:15:15.925Z,102581.88
2019-04-19T11:17:45.662Z,102583.03
2019-04-19T11:20:26.312Z,102583.03
2019-04-19T11:22:48.087Z,102578.58
2019-04-19T11:25:17.828Z,102580.83
2019-04-19T11:27:49.921Z,102574.62
2019-04-19T11:30:24.230Z,102574.98
2019-04-19T11:32:54.870Z,102570.66
2019-04-19T11:35:27.623Z,102570.19
2019-04-19T11:37:57.704Z,102571.75
2019-04-19T11:40:27.470Z,102559.44
2019-04-19T11:42:57.349Z,102571.00
2019-04-19T11:45:28.010Z,102571.86
2019-04-19T11:47:58.818Z,102565.46
2019-04-19T11:50:29.520Z,102565.27
2019-04-19T11:53:16.406Z,102571.46
2019-04-19T11:55:54.155Z,102562.17
2019-04-19T11:58:24.263Z,102568.22
2019-04-19T12:01:12.188Z,102564.72
2019-04-19T12:03:43.564Z,102565.19
2019-04-19T12:06:14.208Z,102556.44
2019-04-19T12:08:44.566Z,102555.93
2019-04-19T12:11:17.722Z,102551.98
2019-04-19T12:13:48.131Z,102552.54
2019-04-19T12:16:19.141Z,102553.01
2019-04-19T12:18:48.912Z,102552.55
2019-04-19T12:21:18.985Z,102547.03
2019-04-19T12:23:48.745Z,102547.41
2019-04-19T12:26:19.875Z,102548.18
2019-04-19T12:28:49.672Z,102547.16
2019-04-19T12:31:19.179Z,102545.63
2019-04-19T12:33:49.170Z,102543.91
2019-04-19T12:36:19.255Z,102542.35
2019-04-19T12:38:50.369Z,102542.89
2019-04-19T12:41:19.873Z,102547.17
2019-04-19T12:43:49.933Z,102552.37
2019-04-19T12:46:21.242Z,102547.52
2019-04-19T12:48:50.809Z,102543.69
2019-04-19T12:51:21.743Z,102542.95
2019-04-19T12:53:52.552Z,102549.02
2019-04-19T12:56:22.380Z,102534.99
2019-04-19T12:58:53.866Z,102542.77
2019-04-19T13:01:26.073Z,102541.44
2019-04-19T13:03:57.196Z,102542.22
2019-04-19T13:06:27.940Z,102525.64
2019-04-19T13:08:59.118Z,102527.04
2019-04-19T13:11:29.353Z,102529.72
2019-04-19T13:13:59.746Z,102529.06
2019-04-19T13:16:30.410Z,102523.19
2019-04-19T13:19:00.506Z,102515.95
2019-04-19T13:21:29.919Z,102521.47
2019-04-19T13:24:00.321Z,102512.30
2019-04-19T13:26:29.762Z,102514.20
2019-04-19T13:28:59.704Z,102518.17
2019-04-19T13:31:29.288Z,102510.43
2019-04-19T13:33:58.670Z,102515.60
2019-04-19T13:36:45.102Z,102519.21
2019-04-19T13:39:25.809Z,102510.41
2019-04-19T13:41:59.273Z,102517.34
2019-04-19T13:44:29.200Z,102512.34
2019-04-19T13:46:58.816Z,102505.09
2019-04-19T13:49:28.647Z,102504.35
2019-04-19T13:51:58.754Z,102502.80
2019-04-19T13:54:28.193Z,102499.03
2019-04-19T13:56:58.019Z,102501.97
2019-04-19T13:59:40.018Z,102506.98
2019-04-19T14:01:59.004Z,102515.05
2019-04-19T14:04:29.214Z,102501.28
2019-04-19T14:06:58.674Z,102494.03
2019-04-19T14:09:29.287Z,102497.11
2019-04-19T14:11:59.032Z,102491.45
2019-04-19T14:14:28.724Z,102493.55
2019-04-19T14:16:58.342Z,102489.55
2019-04-19T14:19:29.049Z,102494.56
2019-04-19T14:21:58.715Z,102490.75
2019-04-19T14:24:29.209Z,102488.16
2019-04-19T14:26:59.551Z,102480.76
2019-04-19T14:29:31.187Z,102482.47
2019-04-19T14:32:01.123Z,102482.98
2019-04-19T14:34:31.112Z,102480.02
2019-04-19T14:37:00.793Z,102476.36
2019-04-19T14:39:30.834Z,102477.63
2019-04-19T14:42:01.383Z,102470.17
2019-04-19T14:44:31.538Z,102472.41
2019-04-19T14:47:03.089Z,102469.80
2019-04-19T14:49:34.567Z,102467.70
2019-04-19T14:52:05.654Z,102470.16
2019-04-19T14:54:36.111Z,102464.09
2019-04-19T14:57:07.177Z,102470.48
2019-04-19T14:59:37.170Z,102463.61
2019-04-19T15:02:24.895Z,102462.06
2019-04-19T15:05:01.752Z,102463.39
2019-04-19T15:07:32.363Z,102463.70
2019-04-19T15:10:03.740Z,102466.10
2019-04-19T15:12:34.399Z,102461.14
2019-04-19T15:15:06.318Z,102462.38
2019-04-19T15:17:36.260Z,102455.28
2019-04-19T15:20:08.101Z,102465.13
2019-04-19T15:22:38.128Z,102461.89
2019-04-19T15:25:09.219Z,102456.38
2019-04-19T15:27:39.136Z,102456.34
2019-04-19T15:30:12.985Z,102451.14
2019-04-19T15:32:44.370Z,102452.30
2019-04-19T15:35:14.267Z,102447.81
2019-04-19T15:37:43.942Z,102449.24
2019-04-19T15:40:16.223Z,102450.94
2019-04-19T15:42:47.517Z,102439.38
2019-04-19T15:45:19.013Z,102446.45
2019-04-19T15:47:48.691Z,102444.51
2019-04-19T15:50:18.374Z,102435.71
2019-04-19T15:52:48.186Z,102441.92
2019-04-19T15:55:17.960Z,102441.39
2019-04-19T15:57:48.650Z,102445.88
2019-04-19T16:00:25.778Z,102443.13
2019-04-19T16:03:05.568Z,102438.86
2019-04-19T16:05:38.095Z,102441.26
2019-04-19T16:08:24.733Z,102441.26
2019-04-19T16:11:02.616Z,102444.72
2019-04-19T16:13:34.080Z,102442.46
2019-04-19T16:16:03.495Z,102442.20
2019-04-19T16:18:34.066Z,102435.41
2019-04-19T16:21:03.486Z,102443.58
2019-04-19T16:23:34.200Z,102440.25
2019-04-19T16:26:05.249Z,102443.52
2019-04-19T16:28:37.363Z,102444.13
2019-04-19T16:31:08.340Z,102447.02
2019-04-19T16:33:38.431Z,102446.30
2019-04-19T16:36:18.935Z,102442.17
2019-04-19T16:38:50.694Z,102446.11
2019-04-19T16:41:20.929Z,102442.92
2019-04-19T16:43:51.554Z,102438.56
2019-04-19T16:46:25.434Z,102442.70
2019-04-19T16:48:52.746Z,102441.67
2019-04-19T16:51:34.605Z,102439.06
2019-04-19T16:53:54.101Z,102436.31
2019-04-19T16:56:23.769Z,102438.56
2019-04-19T16:58:53.259Z,102437.20
2019-04-19T17:01:23.150Z,102435.51
2019-04-19T17:03:55.382Z,102432.35
2019-04-19T17:06:25.146Z,102433.37
2019-04-19T17:08:54.796Z,102437.67
2019-04-19T17:11:26.661Z,102437.43
2019-04-19T17:13:56.593Z,102444.01
2019-04-19T17:16:27.746Z,102443.22
2019-04-19T17:19:10.870Z,102445.75
2019-04-19T17:21:51.756Z,102448.75
2019-04-19T17:24:11.787Z,102453.47
2019-04-19T17:26:42.725Z,102448.74
2019-04-19T17:29:12.883Z,102450.94
2019-04-19T17:31:42.506Z,102454.11
2019-04-19T17:34:12.167Z,102454.11
2019-04-19T17:36:42.530Z,102448.36
2019-04-19T17:39:12.918Z,102454.12
2019-04-19T17:41:42.994Z,102448.52
2019-04-19T17:44:13.523Z,102448.52
2019-04-19T17:46:44.605Z,102464.08
2019-04-19T17:49:14.831Z,102461.48
2019-04-19T17:51:57.736Z,102461.00
2019-04-19T17:54:30.837Z,102467.39
2019-04-19T17:56:49.049Z,102476.55
2019-04-19T17:59:20.896Z,102474.16
2019-04-19T18:01:50.555Z,102476.95
2019-04-19T18:04:21.922Z,102479.77
2019-04-19T18:06:58.074Z,102478.43
2019-04-19T18:09:24.551Z,102481.03
2019-04-19T18:11:55.712Z,102486.31
2019-04-19T18:14:25.581Z,102491.51
2019-04-19T18:16:56.441Z,102486.25
2019-04-19T18:19:31.529Z,102484.58
2019-04-19T18:22:09.727Z,102483.58
2019-04-19T18:24:32.418Z,102483.71
2019-04-19T18:27:06.360Z,102486.78
2019-04-19T18:29:32.373Z,102494.21
2019-04-19T18:32:09.982Z,102496.70
2019-04-19T18:34:43.218Z,102492.44
2019-04-19T18:37:16.851Z,102495.84
2019-04-19T18:39:44.574Z,102498.34
2019-04-19T18:42:15.697Z,102501.16
2019-04-19T18:44:49.956Z,102499.84
2019-04-19T18:47:16.729Z,102499.38
2019-04-19T18:49:47.725Z,102497.36
2019-04-19T18:52:35.876Z,102511.95
2019-04-19T18:54:57.778Z,102506.67
2019-04-19T18:57:20.225Z,102510.82
2019-04-19T18:59:56.001Z,102517.74
2019-04-19T19:02:23.277Z,102517.16
2019-04-19T19:05:00.284Z,102518.67
2019-04-19T19:07:28.020Z,102518.42
2019-04-19T19:09:58.331Z,102518.42
2019-04-19T19:12:28.533Z,102522.52
2019-04-19T19:15:02.485Z,102524.89
2019-04-19T19:17:30.459Z,102526.22
2019-04-19T19:20:06.595Z,102530.69
2019-04-19T19:22:45.325Z,102529.16
2019-04-19T19:25:19.706Z,102542.03
2019-04-19T19:27:35.656Z,102539.34
2019-04-19T19:30:07.183Z,102543.38
2019-04-19T19:32:42.687Z,102548.13
2019-04-19T19:35:16.232Z,102554.59
2019-04-19T19:37:43.102Z,102544.53
2019-04-19T19:40:24.852Z,102553.13
2019-04-19T19:43:08.808Z,102551.42
2019-04-19T19:45:31.315Z,102552.67
2019-04-19T19:48:10.080Z,102548.36
2019-04-19T19:50:44.738Z,102551.85
2019-04-19T19:53:16.512Z,102554.48
2019-04-19T19:55:44.447Z,102561.08
2019-04-19T19:58:03.527Z,102561.36
2019-04-19T20:00:40.859Z,102556.51
2019-04-19T20:03:11.633Z,102555.24
2019-04-19T20:05:33.073Z,102560.32
2019-04-19T20:08:01.782Z,102557.72
2019-04-19T20:10:34.672Z,102559.83
2019-04-19T20:13:08.674Z,102559.58
2019-04-19T20:15:37.809Z,102557.09
2019-04-19T20:18:06.407Z,102563.53
2019-04-19T20:20:42.247Z,102558.67
2019-04-19T20:23:20.655Z,102568.09
2019-04-19T20:25:50.269Z,102561.63
2019-04-19T20:28:20.288Z,102570.52
2019-04-19T20:30:48.357Z,102566.54
2019-04-19T20:33:16.742Z,102565.53
2019-04-19T20:35:52.264Z,102572.80
2019-04-19T20:38:21.861Z,102571.16
2019-04-19T20:40:54.561Z,102570.75
2019-04-19T20:43:35.082Z,102575.56
2019-04-19T20:45:55.697Z,102572.33
2019-04-19T20:48:26.818Z,102569.58
2019-04-19T20:51:06.382Z,102575.50
2019-04-19T20:53:35.830Z,102572.36
2019-04-19T20:58:44.118Z,102580.37
2019-04-19T21:01:05.400Z,102579.19
2019-04-19T21:03:38.188Z,102576.84
2019-04-19T21:06:06.263Z,102580.50
2019-04-19T21:08:42.351Z,102586.49
2019-04-19T21:11:11.107Z,102585.55
2019-04-19T21:13:45.774Z,102586.66
2019-04-19T21:16:12.650Z,102586.05
2019-04-19T21:18:43.805Z,102584.78
2019-04-19T21:21:16.515Z,102582.66
2019-04-19T21:23:52.121Z,102582.27
2019-04-19T21:26:20.591Z,102585.95
2019-04-19T21:28:52.320Z,102589.39
2019-04-19T21:31:23.823Z,102583.56
2019-04-19T21:33:55.712Z,102593.69
2019-04-19T21:36:27.788Z,102587.23
2019-04-19T21:39:00.102Z,102585.61
2019-04-19T21:41:33.195Z,102594.03
2019-04-19T21:43:58.750Z,102597.95
2019-04-19T21:46:31.757Z,102599.52
2019-04-19T21:49:01.754Z,102592.96
2019-04-19T21:51:34.383Z,102595.05
2019-04-19T21:54:02.876Z,102592.66
2019-04-19T21:56:33.537Z,102592.23
2019-04-19T21:59:04.849Z,102592.66
2019-04-19T22:01:39.089Z,102592.22
2019-04-19T22:04:10.161Z,102599.59
2019-04-19T22:06:39.094Z,102598.66
2019-04-19T22:09:16.052Z,102603.83
2019-04-19T22:11:42.638Z,102608.75
2019-04-19T22:14:13.058Z,102600.91
2019-04-19T22:16:45.229Z,102604.36
2019-04-19T22:19:22.412Z,102600.31
2019-04-19T22:21:49.985Z,102603.21
2019-04-19T22:24:26.063Z,102601.86
2019-04-19T22:26:55.793Z,102602.16
2019-04-19T22:29:23.868Z,102600.03
2019-04-19T22:31:56.445Z,102602.92
2019-04-19T22:34:26.341Z,102602.36
2019-04-19T22:36:58.773Z,102605.12
2019-04-19T22:39:27.702Z,102601.27
2019-04-19T22:41:57.193Z,102607.47
2019-04-19T22:44:28.530Z,102602.66
2019-04-19T22:47:01.608Z,102609.99
2019-04-19T22:49:34.076Z,102614.59
2019-04-19T22:52:02.752Z,102608.25
2019-04-19T22:54:32.833Z,102618.00
2019-04-19T22:57:10.970Z,102610.55
2019-04-19T22:59:34.163Z,102616.31
2019-04-19T23:02:12.363Z,102612.58
2019-04-19T23:04:43.748Z,102617.55
2019-04-19T23:07:16.586Z,102614.50
2019-04-19T23:09:46.530Z,102614.75
2019-04-19T23:12:18.412Z,102614.41
2019-04-19T23:14:52.627Z,102608.98
2019-04-19T23:17:31.874Z,102617.45
2019-04-19T23:19:55.413Z,102621.76
2019-04-19T23:22:31.182Z,102620.20
2019-04-19T23:25:03.176Z,102621.31
2019-04-19T23:27:40.882Z,102617.39
2019-04-19T23:30:21.715Z,102626.61
2019-04-19T23:32:50.329Z,102620.98
2019-04-19T23:35:26.912Z,102620.98
2019-04-19T23:37:51.636Z,102629.02
2019-04-19T23:40:28.334Z,102628.88
2019-04-19T23:42:54.779Z,102625.66
2019-04-19T23:45:26.500Z,102626.41
2019-04-19T23:47:56.144Z,102620.90
2019-04-19T23:50:30.968Z,102625.31
2019-04-19T23:52:59.518Z,102627.58
2019-04-19T23:55:28.707Z,102625.86
2019-04-19T23:57:59.890Z,102623.98
